Time;durP1;ratioP1;P1;durP2;ratioP2;P2;SDS_P1;SDS_P2;PMS_P1;PMS_P2;Temp;Humidity;BMP_temperature;BMP_pressure;BME280_temperature;BME280_humidity;BME280_pressure;Samples;Min_cycle;Max_cycle;Signal;HPM_P1;HPM_P2
2022/05/19 00:01:38;;;;;;;12.13;10.98;;;;;;;;;;5016403;27;19906;-76
2022/05/19 00:04:04;;;;;;;12.63;11.18;;;;;;;;;;5016761;27;20041;-77
2022/05/19 00:06:30;;;;;;;10.68;9.73;;;;;;;;;;5008625;27;20035;-77
2022/05/19 00:08:56;;;;;;;9.27;8.57;;;;;;;;;;4990581;28;20031;-77
2022/05/19 00:11:26;;;;;;;9.38;8.57;;;;;;;;;;4998467;28;20054;-77
2022/05/19 00:13:52;;;;;;;13.10;11.77;;;;;;;;;;5016742;27;20116;-77
2022/05/19 00:16:21;;;;;;;14.88;13.38;;;;;;;;;;5016502;27;20034;-77
2022/05/19 00:18:47;;;;;;;15.63;14.00;;;;;;;;;;5016632;27;20056;-77
2022/05/19 00:21:13;;;;;;;17.40;14.25;;;;;;;;;;5013859;27;20090;-77
2022/05/19 00:23:39;;;;;;;19.60;17.55;;;;;;;;;;5016513;27;20054;-77
2022/05/19 00:26:05;;;;;;;19.58;17.67;;;;;;;;;;5007713;27;20034;-77
2022/05/19 00:28:31;;;;;;;19.48;17.42;;;;;;;;;;4996924;28;20023;-77
2022/05/19 00:30:58;;;;;;;20.48;18.45;;;;;;;;;;4996966;28;20084;-77
2022/05/19 00:33:24;;;;;;;20.48;18.17;;;;;;;;;;4996879;28;20029;-77
2022/05/19 00:35:50;;;;;;;21.00;18.90;;;;;;;;;;5001302;27;20069;-77
2022/05/19 00:38:16;;;;;;;21.48;19.20;;;;;;;;;;4997037;28;20023;-77
2022/05/19 00:40:50;;;;;;;21.45;19.25;;;;;;;;;;4999840;28;20090;-76
2022/05/19 00:43:16;;;;;;;26.63;22.33;;;;;;;;;;4996719;28;20049;-77
2022/05/19 00:45:55;;;;;;;24.33;21.73;;;;;;;;;;4996857;27;20046;-77
2022/05/19 00:48:27;;;;;;;28.98;23.15;;;;;;;;;;5008026;27;20127;-78
2022/05/19 00:50:59;;;;;;;25.83;22.58;;;;;;;;;;4996764;28;20038;-76
2022/05/19 00:53:44;;;;;;;30.17;25.42;;;;;;;;;;4996590;28;20037;-77
2022/05/19 00:56:15;;;;;;;29.08;24.95;;;;;;;;;;4996731;28;20023;-77
2022/05/19 00:58:47;;;;;;;27.33;24.40;;;;;;;;;;4996120;28;20132;-77
2022/05/19 01:01:14;;;;;;;28.35;24.92;;;;;;;;;;5001440;27;20058;-77
2022/05/19 01:03:43;;;;;;;30.85;24.88;;;;;;;;;;4996573;28;20038;-77
2022/05/19 01:06:12;;;;;;;25.83;22.75;;;;;;;;;;4996425;28;20094;-77
2022/05/19 01:08:40;;;;;;;27.17;22.58;;;;;;;;;;4996352;28;20023;-77
2022/05/19 01:11:08;;;;;;;28.92;23.77;;;;;;;;;;4996174;28;20022;-76
2022/05/19 01:13:35;;;;;;;29.25;24.13;;;;;;;;;;4996321;28;20054;-77
2022/05/19 01:16:03;;;;;;;29.88;23.65;;;;;;;;;;4996009;28;20063;-77
2022/05/19 01:18:30;;;;;;;27.85;22.83;;;;;;;;;;5015720;27;20041;-76
2022/05/19 01:20:56;;;;;;;28.42;25.20;;;;;;;;;;5015721;27;20094;-77
2022/05/19 01:23:37;;;;;;;30.08;26.27;;;;;;;;;;5015780;27;20076;-77
2022/05/19 01:26:20;;;;;;;31.35;27.13;;;;;;;;;;5011091;27;20035;-77
2022/05/19 01:28:46;;;;;;;30.65;26.27;;;;;;;;;;5015722;27;20030;-77
2022/05/19 01:31:28;;;;;;;33.00;26.17;;;;;;;;;;5012211;27;20038;-77
2022/05/19 01:33:55;;;;;;;30.67;26.38;;;;;;;;;;5010936;27;20065;-77
2022/05/19 01:36:21;;;;;;;34.85;27.40;;;;;;;;;;5015588;27;20022;-77
2022/05/19 01:38:48;;;;;;;32.65;27.40;;;;;;;;;;5016640;27;20062;-77
2022/05/19 01:41:19;;;;;;;32.85;25.63;;;;;;;;;;5001130;27;20058;-77
2022/05/19 01:43:44;;;;;;;33.50;27.75;;;;;;;;;;4999405;28;20026;-77
2022/05/19 01:46:14;;;;;;;32.58;27.80;;;;;;;;;;5000510;28;20148;-77
2022/05/19 01:48:46;;;;;;;32.55;27.10;;;;;;;;;;4998962;28;20030;-77
2022/05/19 01:51:21;;;;;;;36.63;28.83;;;;;;;;;;4999203;28;20037;-77
2022/05/19 01:53:50;;;;;;;29.77;26.38;;;;;;;;;;4999442;28;20031;-77
2022/05/19 01:56:19;;;;;;;34.28;25.92;;;;;;;;;;5018848;27;20040;-77
2022/05/19 01:58:48;;;;;;;30.92;25.95;;;;;;;;;;5013723;27;20045;-77
2022/05/19 02:01:17;;;;;;;33.17;25.77;;;;;;;;;;4999243;28;20110;-76
2022/05/19 02:03:52;;;;;;;32.50;27.27;;;;;;;;;;5011959;27;20043;-77
2022/05/19 02:06:20;;;;;;;35.17;26.55;;;;;;;;;;5018656;27;20046;-77
2022/05/19 02:08:46;;;;;;;35.38;26.55;;;;;;;;;;5018108;27;20022;-77
2022/05/19 02:11:14;;;;;;;36.97;28.13;;;;;;;;;;5017684;27;20043;-77
2022/05/19 02:13:40;;;;;;;34.35;28.75;;;;;;;;;;5012732;27;20043;-77
2022/05/19 02:16:08;;;;;;;38.65;29.50;;;;;;;;;;4998823;28;20068;-77
2022/05/19 02:18:34;;;;;;;35.08;28.83;;;;;;;;;;4998430;28;20059;-77
2022/05/19 02:21:02;;;;;;;39.67;29.90;;;;;;;;;;4999239;28;20026;-77
2022/05/19 02:23:29;;;;;;;38.35;30.85;;;;;;;;;;5012907;27;20082;-77
2022/05/19 02:25:55;;;;;;;36.30;29.33;;;;;;;;;;5018322;27;20026;-77
2022/05/19 02:28:32;;;;;;;35.10;29.27;;;;;;;;;;5018217;27;20033;-77
2022/05/19 02:30:59;;;;;;;35.28;28.17;;;;;;;;;;4999278;28;20031;-77
2022/05/19 02:33:25;;;;;;;35.13;29.05;;;;;;;;;;5009021;27;20053;-77
2022/05/19 02:35:51;;;;;;;34.20;27.92;;;;;;;;;;5007575;27;20031;-77
2022/05/19 02:38:19;;;;;;;36.92;29.23;;;;;;;;;;4998651;28;20046;-77
2022/05/19 02:40:45;;;;;;;34.88;30.08;;;;;;;;;;4998607;28;20030;-77
2022/05/19 02:43:12;;;;;;;33.95;29.00;;;;;;;;;;4998632;28;20061;-77
2022/05/19 02:45:38;;;;;;;39.80;30.80;;;;;;;;;;4998485;28;20086;-77
2022/05/19 02:48:05;;;;;;;38.38;30.77;;;;;;;;;;4998077;28;20027;-77
2022/05/19 02:50:31;;;;;;;39.88;30.58;;;;;;;;;;4997679;28;20053;-77
2022/05/19 02:52:57;;;;;;;40.60;30.02;;;;;;;;;;4998362;28;20022;-77
2022/05/19 02:55:23;;;;;;;34.88;29.70;;;;;;;;;;4998331;28;20095;-77
2022/05/19 02:57:50;;;;;;;36.05;29.38;;;;;;;;;;5013987;27;20051;-77
2022/05/19 03:00:17;;;;;;;35.97;30.70;;;;;;;;;;4998311;28;20027;-77
2022/05/19 03:02:44;;;;;;;39.83;31.13;;;;;;;;;;4998316;28;20046;-77
2022/05/19 03:05:11;;;;;;;36.88;31.08;;;;;;;;;;4999421;28;20095;-77
2022/05/19 03:07:37;;;;;;;39.50;32.03;;;;;;;;;;5009182;27;20054;-77
2022/05/19 03:10:04;;;;;;;40.67;33.45;;;;;;;;;;5017438;27;20034;-77
2022/05/19 03:12:30;;;;;;;40.15;33.33;;;;;;;;;;5017682;27;20090;-77
2022/05/19 03:14:57;;;;;;;42.72;34.70;;;;;;;;;;5017379;28;20054;-77
2022/05/19 03:17:23;;;;;;;40.28;34.30;;;;;;;;;;5004407;27;20051;-77
2022/05/19 03:19:51;;;;;;;41.22;34.13;;;;;;;;;;5006473;28;20086;-77
2022/05/19 03:22:17;;;;;;;43.33;36.30;;;;;;;;;;5001258;28;20054;-77
2022/05/19 03:24:43;;;;;;;46.28;36.40;;;;;;;;;;4997863;28;20053;-77
2022/05/19 03:27:09;;;;;;;40.20;35.85;;;;;;;;;;4997929;28;20096;-77
2022/05/19 03:29:35;;;;;;;43.38;35.70;;;;;;;;;;4997269;28;20057;-78
2022/05/19 03:32:01;;;;;;;42.42;37.42;;;;;;;;;;4997312;28;20051;-77
2022/05/19 03:34:27;;;;;;;45.78;36.45;;;;;;;;;;4996973;28;20077;-78
2022/05/19 03:36:54;;;;;;;43.55;36.95;;;;;;;;;;5008600;28;20074;-77
2022/05/19 03:39:20;;;;;;;44.92;38.22;;;;;;;;;;5016776;27;20090;-77
2022/05/19 03:41:46;;;;;;;48.95;40.33;;;;;;;;;;5017195;27;20030;-77
2022/05/19 03:44:12;;;;;;;46.33;39.30;;;;;;;;;;5011342;27;20030;-77
2022/05/19 03:46:38;;;;;;;44.88;38.78;;;;;;;;;;4997701;28;20119;-77
2022/05/19 03:49:05;;;;;;;46.65;39.10;;;;;;;;;;4997301;28;20054;-77
2022/05/19 03:51:35;;;;;;;48.25;38.67;;;;;;;;;;4997298;28;20027;-77
2022/05/19 03:54:02;;;;;;;50.45;41.30;;;;;;;;;;5003470;27;20046;-77
2022/05/19 03:56:28;;;;;;;48.00;40.40;;;;;;;;;;5016084;27;20035;-77
2022/05/19 03:58:54;;;;;;;52.10;41.90;;;;;;;;;;5016539;27;20147;-77
2022/05/19 04:01:20;;;;;;;49.20;42.38;;;;;;;;;;5016858;27;20114;-77
2022/05/19 04:03:47;;;;;;;55.65;45.53;;;;;;;;;;5005299;27;20033;-77
2022/05/19 04:06:13;;;;;;;55.58;44.03;;;;;;;;;;5009328;27;20018;-77
2022/05/19 04:08:39;;;;;;;54.58;45.38;;;;;;;;;;4997311;28;20031;-77
2022/05/19 04:11:05;;;;;;;56.13;46.90;;;;;;;;;;4997262;28;20069;-77
2022/05/19 04:13:31;;;;;;;62.35;48.17;;;;;;;;;;5012330;27;20031;-77
2022/05/19 04:15:58;;;;;;;66.38;50.50;;;;;;;;;;5016507;27;20034;-76
2022/05/19 04:18:24;;;;;;;65.65;50.53;;;;;;;;;;5016431;27;20094;-76
2022/05/19 04:20:50;;;;;;;61.58;49.03;;;;;;;;;;4999839;27;20039;-77
2022/05/19 04:23:17;;;;;;;65.07;50.13;;;;;;;;;;5016531;27;20022;-76
2022/05/19 04:25:43;;;;;;;65.43;51.47;;;;;;;;;;5016456;27;20031;-77
2022/05/19 04:28:09;;;;;;;64.95;51.97;;;;;;;;;;5015914;27;20037;-76
2022/05/19 04:30:35;;;;;;;64.85;49.88;;;;;;;;;;5016503;27;20049;-76
2022/05/19 04:33:02;;;;;;;70.22;54.85;;;;;;;;;;5011536;27;20065;-77
2022/05/19 04:35:28;;;;;;;71.97;52.20;;;;;;;;;;5007626;27;20022;-77
2022/05/19 04:37:58;;;;;;;69.80;53.47;;;;;;;;;;4996783;28;20066;-77
2022/05/19 04:40:24;;;;;;;68.38;53.15;;;;;;;;;;5002688;28;20035;-76
2022/05/19 04:42:50;;;;;;;71.00;54.58;;;;;;;;;;5016281;27;20026;-77
2022/05/19 04:45:17;;;;;;;69.35;52.00;;;;;;;;;;5016227;27;20116;-77
2022/05/19 04:47:44;;;;;;;62.72;50.30;;;;;;;;;;5016292;27;20060;-76
2022/05/19 04:50:11;;;;;;;62.35;51.80;;;;;;;;;;5003139;27;20044;-77
2022/05/19 04:52:37;;;;;;;68.20;51.72;;;;;;;;;;5016162;27;20037;-76
2022/05/19 04:55:04;;;;;;;68.10;53.63;;;;;;;;;;5014380;27;20030;-77
2022/05/19 04:57:30;;;;;;;73.82;56.03;;;;;;;;;;5016010;27;20050;-76
2022/05/19 04:59:56;;;;;;;70.50;54.85;;;;;;;;;;5016126;27;20022;-77
2022/05/19 05:02:22;;;;;;;69.43;53.95;;;;;;;;;;5016064;27;20030;-77
2022/05/19 05:04:48;;;;;;;68.55;53.92;;;;;;;;;;5001706;28;20046;-77
2022/05/19 05:07:14;;;;;;;63.22;53.30;;;;;;;;;;5015838;27;20057;-77
2022/05/19 05:09:40;;;;;;;68.55;51.85;;;;;;;;;;4999571;28;20098;-75
2022/05/19 05:12:06;;;;;;;64.10;50.17;;;;;;;;;;4995952;28;20022;-77
2022/05/19 05:14:32;;;;;;;57.47;48.13;;;;;;;;;;4996017;28;20027;-78
2022/05/19 05:16:58;;;;;;;62.58;48.60;;;;;;;;;;4996301;28;20050;-77
2022/05/19 05:19:25;;;;;;;55.90;46.38;;;;;;;;;;4998204;27;20090;-77
2022/05/19 05:21:53;;;;;;;56.85;43.78;;;;;;;;;;4996203;28;20054;-77
2022/05/19 05:24:19;;;;;;;52.58;40.97;;;;;;;;;;4996565;28;20035;-77
2022/05/19 05:26:45;;;;;;;50.33;41.42;;;;;;;;;;4999935;28;20027;-76
2022/05/19 05:29:11;;;;;;;48.65;40.85;;;;;;;;;;4981676;28;20037;-77
2022/05/19 05:31:37;;;;;;;49.50;40.28;;;;;;;;;;4996203;28;20058;-76
2022/05/19 05:34:03;;;;;;;50.75;39.63;;;;;;;;;;5003123;27;20026;-77
2022/05/19 05:36:29;;;;;;;51.03;41.33;;;;;;;;;;5008496;27;20045;-77
2022/05/19 05:38:56;;;;;;;46.97;39.80;;;;;;;;;;4995690;28;20055;-77
2022/05/19 05:41:22;;;;;;;48.20;38.97;;;;;;;;;;4995523;28;20050;-76
2022/05/19 05:43:48;;;;;;;44.70;37.03;;;;;;;;;;5011611;27;20023;-77
2022/05/19 05:46:15;;;;;;;46.80;39.25;;;;;;;;;;4995977;28;20038;-76
2022/05/19 05:48:42;;;;;;;45.65;37.17;;;;;;;;;;4997621;28;20138;-77
2022/05/19 05:51:09;;;;;;;48.28;36.95;;;;;;;;;;4995867;28;20023;-77
2022/05/19 05:53:35;;;;;;;41.22;36.40;;;;;;;;;;4995681;28;20054;-77
2022/05/19 05:56:02;;;;;;;46.75;38.88;;;;;;;;;;4994741;28;20035;-77
2022/05/19 05:58:28;;;;;;;45.55;37.67;;;;;;;;;;4994642;28;20050;-77
2022/05/19 06:00:54;;;;;;;48.85;38.65;;;;;;;;;;4993434;28;20042;-77
2022/05/19 06:03:20;;;;;;;46.25;38.70;;;;;;;;;;4996000;28;20034;-77
2022/05/19 06:05:46;;;;;;;51.63;39.78;;;;;;;;;;4996709;27;20043;-77
2022/05/19 06:08:12;;;;;;;57.13;39.33;;;;;;;;;;5002944;27;20069;-77
2022/05/19 06:10:39;;;;;;;53.72;39.10;;;;;;;;;;4997029;27;20049;-82
2022/05/19 06:13:05;;;;;;;52.90;38.60;;;;;;;;;;4997958;28;20076;-81
2022/05/19 06:15:31;;;;;;;52.28;37.88;;;;;;;;;;4999296;27;20061;-82
2022/05/19 06:17:58;;;;;;;65.88;41.22;;;;;;;;;;4993059;27;20042;-81
2022/05/19 06:20:24;;;;;;;59.50;40.78;;;;;;;;;;5004258;28;20057;-81
2022/05/19 06:22:50;;;;;;;61.10;39.25;;;;;;;;;;4995016;28;20051;-79
2022/05/19 06:25:18;;;;;;;48.72;37.38;;;;;;;;;;4993172;28;20042;-79
2022/05/19 06:27:44;;;;;;;49.17;36.15;;;;;;;;;;5011274;27;20049;-79
2022/05/19 06:30:12;;;;;;;48.25;36.72;;;;;;;;;;5018366;27;20027;-79
2022/05/19 06:32:38;;;;;;;53.63;37.08;;;;;;;;;;5010976;27;20033;-80
2022/05/19 06:35:05;;;;;;;58.10;37.28;;;;;;;;;;5010603;27;20045;-80
2022/05/19 06:37:31;;;;;;;57.85;36.58;;;;;;;;;;5014752;27;20072;-80
2022/05/19 06:39:57;;;;;;;55.00;38.83;;;;;;;;;;5012613;27;20047;-80
2022/05/19 06:42:23;;;;;;;53.28;36.17;;;;;;;;;;5007753;27;20075;-81
2022/05/19 06:44:49;;;;;;;59.90;37.63;;;;;;;;;;4998768;28;20035;-80
2022/05/19 06:47:15;;;;;;;51.17;36.63;;;;;;;;;;4998053;28;20043;-80
2022/05/19 06:49:46;;;;;;;70.78;40.60;;;;;;;;;;4998978;27;20033;-79
2022/05/19 06:52:16;;;;;;;47.97;34.67;;;;;;;;;;5001105;27;20030;-79
2022/05/19 06:54:46;;;;;;;45.95;32.72;;;;;;;;;;4997945;28;20034;-79
2022/05/19 06:57:12;;;;;;;56.65;36.88;;;;;;;;;;4998121;28;20038;-80
2022/05/19 06:59:39;;;;;;;53.08;36.45;;;;;;;;;;4998374;28;20086;-79
2022/05/19 07:02:05;;;;;;;58.67;37.50;;;;;;;;;;4999247;28;20045;-79
2022/05/19 07:04:32;;;;;;;66.35;34.30;;;;;;;;;;4998293;28;20110;-79
2022/05/19 07:06:58;;;;;;;71.25;36.72;;;;;;;;;;4997919;28;20029;-79
2022/05/19 07:09:24;;;;;;;58.70;33.17;;;;;;;;;;4998309;28;20047;-79
2022/05/19 07:11:50;;;;;;;56.17;32.83;;;;;;;;;;5012985;28;20046;-79
2022/05/19 07:14:16;;;;;;;60.28;30.55;;;;;;;;;;5021179;28;20024;-79
2022/05/19 07:16:44;;;;;;;56.25;26.85;;;;;;;;;;5116616;27;20032;-79
2022/05/19 07:21:56;;;;;;;47.70;25.40;;;;;;;;;;5010597;28;20090;-79
2022/05/19 07:24:23;;;;;;;48.65;24.83;;;;;;;;;;4999062;28;20031;-79
2022/05/19 07:26:51;;;;;;;44.38;22.77;;;;;;;;;;5016525;27;20058;-79
2022/05/19 07:29:18;;;;;;;46.42;24.35;;;;;;;;;;5017562;27;20022;-79
2022/05/19 07:31:46;;;;;;;48.33;24.85;;;;;;;;;;5017451;27;20119;-81
2022/05/19 07:34:13;;;;;;;34.97;23.48;;;;;;;;;;4997858;28;20034;-79
2022/05/19 07:36:40;;;;;;;40.00;24.98;;;;;;;;;;4996497;28;20035;-77
2022/05/19 07:39:06;;;;;;;34.35;23.17;;;;;;;;;;4999057;28;20046;-77
2022/05/19 07:41:32;;;;;;;31.88;24.08;;;;;;;;;;4997587;28;20031;-77
2022/05/19 07:43:59;;;;;;;36.05;25.33;;;;;;;;;;4997125;28;20045;-77
2022/05/19 07:46:25;;;;;;;35.08;23.92;;;;;;;;;;4997472;28;20098;-78
2022/05/19 07:48:55;;;;;;;35.35;24.25;;;;;;;;;;4997206;28;20030;-77
2022/05/19 07:51:25;;;;;;;32.88;21.75;;;;;;;;;;4997608;28;20084;-77
2022/05/19 07:53:51;;;;;;;29.40;22.15;;;;;;;;;;4997464;28;20045;-77
2022/05/19 07:56:17;;;;;;;33.08;22.70;;;;;;;;;;4996715;28;20047;-79
2022/05/19 07:58:44;;;;;;;30.13;20.90;;;;;;;;;;4995737;28;20038;-77
2022/05/19 08:01:10;;;;;;;28.67;20.40;;;;;;;;;;4997459;28;20086;-76
2022/05/19 08:03:36;;;;;;;27.90;19.63;;;;;;;;;;5013035;27;20040;-77
2022/05/19 08:06:04;;;;;;;26.02;20.38;;;;;;;;;;5016740;27;20055;-76
2022/05/19 08:08:30;;;;;;;26.17;19.35;;;;;;;;;;4982924;28;20039;-77
2022/05/19 08:10:57;;;;;;;26.92;18.63;;;;;;;;;;5001043;28;20057;-76
2022/05/19 08:16:08;;;;;;;27.50;18.58;;;;;;;;;;4996830;28;20043;-78
2022/05/19 08:18:34;;;;;;;27.10;18.42;;;;;;;;;;4996330;28;20064;-78
2022/05/19 08:21:01;;;;;;;27.42;19.67;;;;;;;;;;5006751;27;20086;-78
2022/05/19 08:23:28;;;;;;;23.17;17.35;;;;;;;;;;5006335;28;20034;-77
2022/05/19 08:25:55;;;;;;;24.50;16.20;;;;;;;;;;5015922;27;20031;-77
2022/05/19 08:28:21;;;;;;;22.30;17.02;;;;;;;;;;5015483;27;20065;-77
2022/05/19 08:30:49;;;;;;;20.88;17.10;;;;;;;;;;5006632;27;20081;-77
2022/05/19 08:33:15;;;;;;;23.63;16.90;;;;;;;;;;5009101;28;20190;-77
2022/05/19 08:35:42;;;;;;;21.45;16.50;;;;;;;;;;5009220;28;20030;-77
2022/05/19 08:38:08;;;;;;;23.45;16.10;;;;;;;;;;5000523;28;20040;-77
2022/05/19 08:40:37;;;;;;;20.13;15.95;;;;;;;;;;5006104;28;20053;-77
2022/05/19 08:43:03;;;;;;;22.98;16.33;;;;;;;;;;5003184;28;20034;-78
2022/05/19 08:45:31;;;;;;;21.45;14.77;;;;;;;;;;5005417;27;20031;-77
2022/05/19 08:48:03;;;;;;;24.60;16.55;;;;;;;;;;4995718;28;20034;-77
2022/05/19 08:50:32;;;;;;;21.65;14.98;;;;;;;;;;5005658;27;20094;-77
2022/05/19 08:52:58;;;;;;;20.60;16.17;;;;;;;;;;5004691;28;20059;-77
2022/05/19 08:55:24;;;;;;;22.80;15.35;;;;;;;;;;5011484;28;20039;-77
2022/05/19 08:57:58;;;;;;;18.83;15.13;;;;;;;;;;4996646;28;20049;-77
2022/05/19 09:00:27;;;;;;;20.65;15.23;;;;;;;;;;4999090;28;20046;-77
2022/05/19 09:03:06;;;;;;;25.45;16.45;;;;;;;;;;5009066;27;20057;-77
2022/05/19 09:05:50;;;;;;;19.13;15.20;;;;;;;;;;4996549;28;20034;-78
2022/05/19 09:08:36;;;;;;;23.35;16.95;;;;;;;;;;4996652;28;20077;-77
2022/05/19 09:11:02;;;;;;;22.42;17.25;;;;;;;;;;4995937;28;20094;-76
2022/05/19 09:13:37;;;;;;;23.02;16.60;;;;;;;;;;4996204;28;20030;-77
2022/05/19 09:16:12;;;;;;;22.80;16.38;;;;;;;;;;4996165;28;20073;-76
2022/05/19 09:18:40;;;;;;;21.38;16.50;;;;;;;;;;4996463;28;20030;-76
2022/05/19 09:21:07;;;;;;;23.85;16.90;;;;;;;;;;5001807;27;20110;-77
2022/05/19 09:23:36;;;;;;;23.60;16.92;;;;;;;;;;4995647;28;20029;-77
2022/05/19 09:26:14;;;;;;;22.85;16.13;;;;;;;;;;5089326;28;20042;-77
2022/05/19 09:28:40;;;;;;;17.88;15.02;;;;;;;;;;5113017;28;20092;-77
2022/05/19 09:31:06;;;;;;;16.52;14.57;;;;;;;;;;5118240;28;20039;-77
2022/05/19 09:33:37;;;;;;;18.92;15.25;;;;;;;;;;5107309;28;20026;-77
2022/05/19 09:36:11;;;;;;;19.48;15.75;;;;;;;;;;5098081;28;20031;-77
2022/05/19 09:38:39;;;;;;;20.60;16.38;;;;;;;;;;5098025;28;20021;-77
2022/05/19 09:41:06;;;;;;;21.60;15.73;;;;;;;;;;5097550;28;20105;-77
2022/05/19 09:43:39;;;;;;;21.00;17.20;;;;;;;;;;5097401;28;20029;-77
2022/05/19 09:46:05;;;;;;;20.42;15.77;;;;;;;;;;5112699;28;20092;-77
2022/05/19 09:48:33;;;;;;;21.45;16.38;;;;;;;;;;5096511;28;20029;-78
2022/05/19 09:51:02;;;;;;;21.48;16.15;;;;;;;;;;5097915;28;20025;-77
2022/05/19 09:53:29;;;;;;;17.48;15.43;;;;;;;;;;5105651;28;20107;-78
2022/05/19 09:55:56;;;;;;;17.73;15.82;;;;;;;;;;5128871;28;20047;-78
2022/05/19 09:58:25;;;;;;;18.85;15.02;;;;;;;;;;5129924;28;20047;-77
2022/05/19 10:00:56;;;;;;;20.15;15.15;;;;;;;;;;5131098;28;20049;-78
2022/05/19 10:03:38;;;;;;;19.05;15.52;;;;;;;;;;5111138;28;20036;-77
2022/05/19 10:06:06;;;;;;;20.30;15.02;;;;;;;;;;5105959;28;20063;-77
2022/05/19 10:08:39;;;;;;;17.98;15.35;;;;;;;;;;5110561;28;20021;-77
2022/05/19 10:11:14;;;;;;;16.70;14.90;;;;;;;;;;5101599;28;20051;-77
2022/05/19 10:13:43;;;;;;;16.45;14.40;;;;;;;;;;5106045;28;20036;-82
2022/05/19 10:16:12;;;;;;;19.95;15.32;;;;;;;;;;5116011;28;20092;-76
2022/05/19 10:18:44;;;;;;;18.80;14.38;;;;;;;;;;5109165;28;20024;-76
2022/05/19 10:21:16;;;;;;;18.20;14.63;;;;;;;;;;5114340;28;20035;-76
2022/05/19 10:24:03;;;;;;;16.63;14.77;;;;;;;;;;5120988;28;20054;-76
2022/05/19 10:26:29;;;;;;;;;;;;;;;;;;5097920;28;20122;-77
2022/05/19 10:32:00;;;;;;;18.50;14.68;;;;;;;;;;5108862;28;20036;-77
2022/05/19 10:34:45;;;;;;;16.75;14.52;;;;;;;;;;5101009;28;20020;-76
2022/05/19 10:37:27;;;;;;;18.17;14.65;;;;;;;;;;5100670;28;20082;-77
2022/05/19 10:40:03;;;;;;;16.63;14.90;;;;;;;;;;5101023;28;20028;-78
2022/05/19 10:42:29;;;;;;;17.10;15.45;;;;;;;;;;5099159;28;20036;-74
2022/05/19 10:44:58;;;;;;;17.50;14.68;;;;;;;;;;5119407;28;20036;-80
2022/05/19 10:47:51;;;;;;;14.90;13.40;;;;;;;;;;5119841;28;20024;-79
2022/05/19 10:50:30;;;;;;;16.52;14.68;;;;;;;;;;5102026;28;20028;-78
2022/05/19 10:53:11;;;;;;;16.48;14.32;;;;;;;;;;5120747;28;20027;-77
2022/05/19 10:55:37;;;;;;;17.27;14.68;;;;;;;;;;5115463;28;20039;-79
2022/05/19 10:58:17;;;;;;;18.17;15.07;;;;;;;;;;5120878;28;20024;-78
2022/05/19 11:00:51;;;;;;;17.33;14.63;;;;;;;;;;5112479;28;20020;-78
2022/05/19 11:03:23;;;;;;;17.55;15.68;;;;;;;;;;5117295;28;20049;-78
2022/05/19 11:05:59;;;;;;;19.55;15.90;;;;;;;;;;5100535;28;20028;-78
2022/05/19 11:08:24;;;;;;;18.02;16.17;;;;;;;;;;5100520;28;20070;-78
2022/05/19 11:10:53;;;;;;;17.90;15.63;;;;;;;;;;5107111;28;20052;-78
2022/05/19 11:13:36;;;;;;;18.35;16.38;;;;;;;;;;5120902;28;20040;-78
2022/05/19 11:16:12;;;;;;;18.85;15.38;;;;;;;;;;5115534;28;20036;-78
2022/05/19 11:18:38;;;;;;;;;;;;;;;;;;5121346;28;20031;-78
2022/05/19 11:21:06;;;;;;;18.70;16.77;;;;;;;;;;5120773;28;19935;-77
2022/05/19 11:23:44;;;;;;;18.88;16.88;;;;;;;;;;5117486;28;20087;-79
2022/05/19 11:26:27;;;;;;;18.38;16.40;;;;;;;;;;5108103;28;20065;-78
2022/05/19 11:29:08;;;;;;;17.38;15.55;;;;;;;;;;5105030;28;20024;-77
2022/05/19 11:32:07;;;;;;;16.55;14.85;;;;;;;;;;5100611;28;20048;-78
2022/05/19 11:35:09;;;;;;;16.90;15.35;;;;;;;;;;5098472;28;20039;-78
2022/05/19 11:37:54;;;;;;;15.25;13.65;;;;;;;;;;5022872;28;20104;-79
2022/05/19 11:40:38;;;;;;;16.67;14.88;;;;;;;;;;5045557;28;20059;-77
2022/05/19 11:43:23;;;;;;;17.25;15.40;;;;;;;;;;5058854;28;20152;-78
2022/05/19 11:45:52;;;;;;;16.50;14.93;;;;;;;;;;5057574;28;20056;-77
2022/05/19 11:57:21;;;;;;;23.90;21.65;;;;;;;;;;5038609;28;20069;-78
2022/05/19 11:59:50;;;;;;;24.23;21.90;;;;;;;;;;5044543;28;20041;-78
2022/05/19 12:02:18;;;;;;;27.80;25.00;;;;;;;;;;5058560;28;20029;-78
2022/05/19 12:04:45;;;;;;;27.70;24.80;;;;;;;;;;5058291;28;20114;-80
2022/05/19 12:07:24;;;;;;;27.92;24.92;;;;;;;;;;5041839;28;20033;-80
2022/05/19 12:09:53;;;;;;;28.63;25.45;;;;;;;;;;5041373;28;20099;-79
2022/05/19 12:12:32;;;;;;;30.95;27.55;;;;;;;;;;5087029;28;20036;-80
2022/05/19 12:15:04;;;;;;;34.22;30.65;;;;;;;;;;5098937;28;20036;-80
2022/05/19 12:17:38;;;;;;;31.80;28.80;;;;;;;;;;5100597;28;20037;-80
2022/05/19 12:20:24;;;;;;;34.25;30.83;;;;;;;;;;5117833;28;20036;-78
2022/05/19 12:23:10;;;;;;;33.03;29.80;;;;;;;;;;5118318;28;20031;-77
2022/05/19 12:25:38;;;;;;;34.92;31.35;;;;;;;;;;5119482;28;20050;-78
2022/05/19 12:28:13;;;;;;;33.65;30.17;;;;;;;;;;5119428;28;20024;-78
2022/05/19 12:33:29;;;;;;;32.58;29.20;;;;;;;;;;5104456;28;20099;-78
2022/05/19 12:36:05;;;;;;;34.03;30.63;;;;;;;;;;5098955;28;20110;-79
2022/05/19 12:38:33;;;;;;;32.35;28.90;;;;;;;;;;5114942;28;20024;-79
2022/05/19 12:41:03;;;;;;;30.95;27.70;;;;;;;;;;5113762;28;20030;-80
2022/05/19 12:43:37;;;;;;;26.98;23.48;;;;;;;;;;5116414;28;20035;-80
2022/05/19 12:46:03;;;;;;;26.20;23.13;;;;;;;;;;5098755;28;20056;-79
2022/05/19 12:48:32;;;;;;;20.25;17.17;;;;;;;;;;5109826;28;20040;-80
2022/05/19 12:51:16;;;;;;;13.38;10.98;;;;;;;;;;5098654;28;20025;-79
2022/05/19 12:53:42;;;;;;;8.75;5.30;;;;;;;;;;5098229;28;20061;-80
2022/05/19 12:56:09;;;;;;;4.50;3.45;;;;;;;;;;5096532;28;20035;-79
2022/05/19 12:58:42;;;;;;;6.57;4.35;;;;;;;;;;5102269;28;20038;-77
2022/05/19 13:01:21;;;;;;;8.93;7.22;;;;;;;;;;5107055;28;20024;-75
2022/05/19 13:04:08;;;;;;;10.85;9.20;;;;;;;;;;5116428;28;20020;-77
2022/05/19 13:06:35;;;;;;;11.70;10.50;;;;;;;;;;5111486;28;20020;-76
2022/05/19 13:09:03;;;;;;;11.98;10.77;;;;;;;;;;5107404;28;20038;-76
2022/05/19 13:11:31;;;;;;;13.77;12.35;;;;;;;;;;5118108;28;20028;-76
2022/05/19 13:14:07;;;;;;;15.77;14.18;;;;;;;;;;5099556;28;20083;-77
2022/05/19 13:16:37;;;;;;;15.40;13.65;;;;;;;;;;5113236;28;20056;-77
2022/05/19 13:19:07;;;;;;;17.15;15.15;;;;;;;;;;5111058;28;20039;-77
2022/05/19 13:21:35;;;;;;;17.63;15.70;;;;;;;;;;5097899;28;20047;-77
2022/05/19 13:24:07;;;;;;;17.30;15.48;;;;;;;;;;5097904;28;20028;-77
2022/05/19 13:26:34;;;;;;;19.05;16.48;;;;;;;;;;5097709;28;20040;-75
2022/05/19 13:31:55;;;;;;;19.38;15.95;;;;;;;;;;5107119;28;20048;-76
2022/05/19 13:34:22;;;;;;;17.40;15.40;;;;;;;;;;5121283;28;20066;-77
2022/05/19 13:36:52;;;;;;;16.17;14.40;;;;;;;;;;5106772;28;20032;-77
2022/05/19 13:39:19;;;;;;;16.60;14.57;;;;;;;;;;5101502;28;20033;-77
2022/05/19 13:42:06;;;;;;;14.57;12.52;;;;;;;;;;5102282;28;20058;-77
2022/05/19 13:44:40;;;;;;;14.73;12.52;;;;;;;;;;5101791;28;20040;-76
2022/05/19 13:47:25;;;;;;;13.75;12.32;;;;;;;;;;5114413;28;20059;-76
2022/05/19 13:49:58;;;;;;;16.38;13.10;;;;;;;;;;5115223;28;20039;-77
2022/05/19 13:52:25;;;;;;;14.90;13.18;;;;;;;;;;5106366;28;20020;-77
2022/05/19 13:54:51;;;;;;;16.65;14.68;;;;;;;;;;5101719;28;20028;-77
2022/05/19 13:57:20;;;;;;;18.17;14.90;;;;;;;;;;5101707;28;20045;-77
2022/05/19 13:59:48;;;;;;;18.38;16.48;;;;;;;;;;5101764;28;20033;-76
2022/05/19 14:02:41;;;;;;;18.20;16.30;;;;;;;;;;5100702;28;20041;-76
2022/05/19 14:05:09;;;;;;;18.02;16.15;;;;;;;;;;5100096;28;20044;-77
2022/05/19 14:07:36;;;;;;;19.25;17.20;;;;;;;;;;5117325;28;20111;-77
2022/05/19 14:10:08;;;;;;;18.90;16.80;;;;;;;;;;5120573;28;20032;-76
2022/05/19 14:12:39;;;;;;;17.75;16.05;;;;;;;;;;5111506;28;20043;-75
2022/05/19 14:15:09;;;;;;;19.05;16.73;;;;;;;;;;5090529;28;20053;-75
2022/05/19 14:17:37;;;;;;;17.65;15.73;;;;;;;;;;5085771;28;20052;-76
2022/05/19 14:20:05;;;;;;;16.70;14.95;;;;;;;;;;5104424;28;20066;-76
2022/05/19 14:22:33;;;;;;;14.95;13.38;;;;;;;;;;5105467;28;20104;-76
2022/05/19 14:25:03;;;;;;;15.45;13.55;;;;;;;;;;5093455;28;20044;-76
2022/05/19 14:27:32;;;;;;;14.40;12.65;;;;;;;;;;5091604;28;20096;-74
2022/05/19 14:30:02;;;;;;;14.32;12.93;;;;;;;;;;5105019;28;20039;-75
2022/05/19 14:32:35;;;;;;;14.63;13.02;;;;;;;;;;5116179;28;20028;-76
2022/05/19 14:35:20;;;;;;;16.48;13.52;;;;;;;;;;5114459;28;20038;-76
2022/05/19 14:37:49;;;;;;;13.07;11.77;;;;;;;;;;5121365;28;20043;-76
2022/05/19 14:43:04;;;;;;;12.55;11.35;;;;;;;;;;5110025;28;20052;-76
2022/05/19 14:45:31;;;;;;;12.60;11.40;;;;;;;;;;5122612;28;20028;-76
2022/05/19 14:47:58;;;;;;;12.20;10.90;;;;;;;;;;5102371;28;20040;-77
2022/05/19 14:50:25;;;;;;;11.98;10.77;;;;;;;;;;5118233;28;20020;-77
2022/05/19 14:52:55;;;;;;;11.20;10.10;;;;;;;;;;5106091;28;20028;-77
2022/05/19 14:55:24;;;;;;;11.25;10.10;;;;;;;;;;5108375;28;20104;-76
2022/05/19 14:57:50;;;;;;;12.52;11.43;;;;;;;;;;5100148;28;20043;-76